createdAt,value
2022-12-31T00:00:38.750Z,11.40
2022-12-31T00:03:10.486Z,8.10
2022-12-31T00:05:38.265Z,8.10
2022-12-31T00:08:05.928Z,8.00
2022-12-31T00:10:40.177Z,8.10
2022-12-31T00:13:09.242Z,8.10
2022-12-31T00:15:38.431Z,8.20
2022-12-31T00:18:07.700Z,8.20
2022-12-31T00:20:38.515Z,8.30
2022-12-31T00:23:06.127Z,8.30
2022-12-31T00:25:36.399Z,8.40
2022-12-31T00:28:05.383Z,8.40
2022-12-31T00:30:34.817Z,8.50
2022-12-31T00:33:02.699Z,8.50
2022-12-31T00:35:30.861Z,8.60
2022-12-31T00:37:58.567Z,8.60
2022-12-31T00:40:26.169Z,8.70
2022-12-31T00:42:53.905Z,8.70
2022-12-31T00:47:49.618Z,8.70
2022-12-31T00:50:17.281Z,8.70
2022-12-31T00:52:44.926Z,8.70
2022-12-31T00:55:12.810Z,8.70
2022-12-31T00:57:40.575Z,8.60
2022-12-31T01:00:09.237Z,8.60
2022-12-31T01:02:37.099Z,8.50
2022-12-31T01:05:05.763Z,8.50
2022-12-31T01:07:33.419Z,8.40
2022-12-31T01:10:00.983Z,8.40
2022-12-31T01:12:28.647Z,8.40
2022-12-31T01:14:56.406Z,8.30
2022-12-31T01:17:24.315Z,8.20
2022-12-31T01:19:51.894Z,8.30
2022-12-31T01:22:19.535Z,8.20
2022-12-31T01:24:47.074Z,8.20
2022-12-31T01:27:14.716Z,8.20
2022-12-31T01:29:42.233Z,8.30
2022-12-31T01:32:10.351Z,8.30
2022-12-31T01:34:38.527Z,8.20
2022-12-31T01:37:06.596Z,8.30
2022-12-31T01:39:34.494Z,8.30
2022-12-31T01:42:02.151Z,8.30
2022-12-31T01:44:29.909Z,8.40
2022-12-31T01:47:00.963Z,8.40
2022-12-31T01:50:01.132Z,8.40
2022-12-31T01:52:39.220Z,8.50
2022-12-31T01:55:10.559Z,8.50
2022-12-31T01:57:38.767Z,8.50
2022-12-31T02:00:07.742Z,8.60
2022-12-31T02:02:35.783Z,8.60
2022-12-31T02:05:10.863Z,8.70
2022-12-31T02:07:39.725Z,8.60
2022-12-31T02:10:07.619Z,8.60
2022-12-31T02:12:35.806Z,8.60
2022-12-31T02:15:03.682Z,8.60
2022-12-31T02:18:03.387Z,8.60
2022-12-31T02:20:46.192Z,8.50
2022-12-31T02:23:51.412Z,8.50
2022-12-31T02:26:37.700Z,8.50
2022-12-31T02:29:28.978Z,8.50
2022-12-31T02:32:02.922Z,8.50
2022-12-31T02:34:45.155Z,8.50
2022-12-31T02:37:16.116Z,8.40
2022-12-31T02:39:44.969Z,8.50
2022-12-31T02:42:12.635Z,8.40
2022-12-31T02:44:42.423Z,8.50
2022-12-31T02:50:15.648Z,8.40
2022-12-31T02:53:04.237Z,8.40
2022-12-31T02:56:02.895Z,8.40
2022-12-31T02:59:05.533Z,8.50
2022-12-31T03:01:55.854Z,8.50
2022-12-31T03:04:34.525Z,8.50
2022-12-31T03:07:08.761Z,8.50
2022-12-31T03:09:37.349Z,8.50
2022-12-31T03:12:25.979Z,9.60
2022-12-31T03:14:53.942Z,8.50
2022-12-31T03:17:22.000Z,8.50
2022-12-31T03:20:08.472Z,8.50
2022-12-31T03:22:39.715Z,8.50
2022-12-31T03:25:29.817Z,8.60
2022-12-31T03:27:57.493Z,8.60
2022-12-31T03:30:25.791Z,8.50
2022-12-31T03:32:54.254Z,8.60
2022-12-31T03:35:23.092Z,8.60
2022-12-31T03:37:51.688Z,8.60
2022-12-31T03:40:21.902Z,8.60
2022-12-31T03:42:49.561Z,8.60
2022-12-31T03:45:17.804Z,8.60
2022-12-31T03:47:45.842Z,8.60
2022-12-31T03:50:15.925Z,8.60
2022-12-31T03:55:12.123Z,8.60
2022-12-31T03:57:39.822Z,8.60
2022-12-31T04:00:12.060Z,8.60
2022-12-31T04:02:40.252Z,8.60
2022-12-31T04:05:08.556Z,8.70
2022-12-31T04:10:06.169Z,8.60
2022-12-31T04:12:33.981Z,8.70
2022-12-31T04:15:53.051Z,8.60
2022-12-31T04:18:20.747Z,8.60
2022-12-31T04:20:48.423Z,8.60
2022-12-31T04:23:16.039Z,8.60
2022-12-31T04:25:43.784Z,8.60
2022-12-31T04:28:12.177Z,8.60
2022-12-31T04:30:40.680Z,8.60
2022-12-31T04:35:36.121Z,8.60
2022-12-31T04:38:04.268Z,8.60
2022-12-31T04:40:32.135Z,8.60
2022-12-31T04:42:59.688Z,8.60
2022-12-31T04:45:27.287Z,8.60
2022-12-31T04:47:54.854Z,8.50
2022-12-31T04:50:22.570Z,8.50
2022-12-31T04:55:18.156Z,8.40
2022-12-31T04:57:46.004Z,8.50
2022-12-31T05:00:13.943Z,8.50
2022-12-31T05:02:41.706Z,8.40
2022-12-31T05:05:09.670Z,8.40
2022-12-31T05:07:37.446Z,8.40
2022-12-31T05:12:33.141Z,8.40
2022-12-31T05:15:00.846Z,8.40
2022-12-31T05:17:28.414Z,8.40
2022-12-31T05:19:56.072Z,8.40
2022-12-31T05:22:29.358Z,8.40
2022-12-31T05:24:58.603Z,8.40
2022-12-31T05:29:54.384Z,8.50
2022-12-31T05:32:22.077Z,8.50
2022-12-31T05:34:49.612Z,8.50
2022-12-31T05:37:17.250Z,8.50
2022-12-31T05:39:44.879Z,8.50
2022-12-31T05:42:12.441Z,8.50
2022-12-31T05:44:40.193Z,8.60
2022-12-31T05:47:07.981Z,8.60
2022-12-31T05:49:35.563Z,8.60
2022-12-31T05:52:03.276Z,8.60
2022-12-31T05:54:31.010Z,8.60
2022-12-31T05:56:58.686Z,8.60
2022-12-31T05:59:26.337Z,8.60
2022-12-31T06:01:54.045Z,8.60
2022-12-31T06:04:21.857Z,8.70
2022-12-31T06:06:49.606Z,8.70
2022-12-31T06:09:20.106Z,8.70
2022-12-31T06:11:49.200Z,8.80
2022-12-31T06:14:16.901Z,8.80
2022-12-31T06:16:44.533Z,8.80
2022-12-31T06:19:12.513Z,8.80
2022-12-31T06:21:41.984Z,8.80
2022-12-31T06:24:10.939Z,8.80
2022-12-31T06:29:06.802Z,8.80
2022-12-31T06:31:35.097Z,8.80
2022-12-31T06:34:03.583Z,8.80
2022-12-31T06:36:31.481Z,8.80
2022-12-31T06:39:00.557Z,8.80
2022-12-31T06:43:56.719Z,8.80
2022-12-31T06:46:27.083Z,8.80
2022-12-31T06:48:54.948Z,8.80
2022-12-31T06:51:23.199Z,8.80
2022-12-31T06:53:55.747Z,8.80
2022-12-31T06:56:33.825Z,8.80
2022-12-31T06:59:17.668Z,8.90
2022-12-31T07:02:16.007Z,8.90
2022-12-31T07:05:16.601Z,8.90
2022-12-31T07:08:10.042Z,8.90
2022-12-31T07:11:08.286Z,8.80
2022-12-31T07:14:18.052Z,8.80
2022-12-31T07:17:13.618Z,8.90
2022-12-31T07:20:26.509Z,8.90
2022-12-31T07:22:56.171Z,8.80
2022-12-31T07:25:25.724Z,8.80
2022-12-31T07:28:16.634Z,8.80
2022-12-31T07:31:22.513Z,8.80
2022-12-31T07:34:18.570Z,8.80
2022-12-31T07:36:54.118Z,8.70
2022-12-31T07:39:50.461Z,8.80
2022-12-31T07:42:31.079Z,8.80
2022-12-31T07:45:20.621Z,8.80
2022-12-31T07:47:48.378Z,8.80
2022-12-31T07:50:18.559Z,8.80
2022-12-31T07:52:47.838Z,8.70
2022-12-31T07:55:15.797Z,8.70
2022-12-31T07:57:56.353Z,8.60
2022-12-31T08:00:24.355Z,8.60
2022-12-31T08:03:10.847Z,8.60
2022-12-31T08:06:10.965Z,8.50
2022-12-31T08:08:53.950Z,8.50
2022-12-31T08:11:38.086Z,8.50
2022-12-31T08:14:10.343Z,8.50
2022-12-31T08:16:38.417Z,8.50
2022-12-31T08:19:06.621Z,8.50
2022-12-31T08:21:35.167Z,8.50
2022-12-31T08:24:17.372Z,8.50
2022-12-31T08:27:03.830Z,8.50
2022-12-31T08:29:40.093Z,8.60
2022-12-31T08:32:16.293Z,8.60
2022-12-31T08:35:07.325Z,8.70
2022-12-31T08:37:43.129Z,8.70
2022-12-31T08:40:35.055Z,8.70
2022-12-31T08:43:27.645Z,8.70
2022-12-31T08:45:57.979Z,8.70
2022-12-31T08:50:57.654Z,8.70
2022-12-31T08:53:26.788Z,8.80
2022-12-31T08:56:19.129Z,8.80
2022-12-31T08:59:18.804Z,8.80
2022-12-31T09:02:15.182Z,8.80
2022-12-31T09:05:06.329Z,8.80
2022-12-31T09:07:49.791Z,8.80
2022-12-31T09:10:32.538Z,8.90
2022-12-31T09:13:25.326Z,8.90
2022-12-31T09:16:16.675Z,8.90
2022-12-31T09:18:45.243Z,8.90
2022-12-31T09:21:15.103Z,8.90
2022-12-31T09:23:44.199Z,8.90
2022-12-31T09:26:25.889Z,9.00
2022-12-31T09:29:12.055Z,9.00
2022-12-31T09:31:51.190Z,9.00
2022-12-31T09:34:34.399Z,9.00
2022-12-31T09:37:36.963Z,9.00
2022-12-31T09:40:38.742Z,9.00
2022-12-31T09:43:33.755Z,9.00
2022-12-31T09:46:28.485Z,9.10
2022-12-31T09:49:26.219Z,9.10
2022-12-31T09:52:15.635Z,9.10
2022-12-31T09:55:22.258Z,9.10
2022-12-31T09:58:16.851Z,9.10
2022-12-31T10:00:59.622Z,9.10
2022-12-31T10:03:44.427Z,10.60
2022-12-31T10:06:28.806Z,9.10
2022-12-31T10:09:11.963Z,9.10
2022-12-31T10:11:44.919Z,9.10
2022-12-31T10:14:46.940Z,9.10
2022-12-31T10:17:37.208Z,9.10
2022-12-31T10:20:26.623Z,9.10
2022-12-31T10:23:16.179Z,9.10
2022-12-31T10:26:02.780Z,9.10
2022-12-31T10:28:49.237Z,9.20
2022-12-31T10:31:35.967Z,9.20
2022-12-31T10:34:16.472Z,9.20
2022-12-31T10:36:51.988Z,9.30
2022-12-31T10:39:41.221Z,9.30
2022-12-31T10:42:30.147Z,9.30
2022-12-31T10:45:04.259Z,9.40
2022-12-31T10:48:01.498Z,9.40
2022-12-31T10:51:19.183Z,9.50
2022-12-31T10:54:12.652Z,9.50
2022-12-31T10:57:10.255Z,9.60
2022-12-31T11:00:16.204Z,9.70
2022-12-31T11:03:02.671Z,9.80
2022-12-31T11:05:49.653Z,9.80
2022-12-31T11:08:43.474Z,9.80
2022-12-31T11:11:22.288Z,9.90
2022-12-31T11:14:17.587Z,10.10
2022-12-31T11:16:57.248Z,10.10
2022-12-31T11:20:02.063Z,10.20
2022-12-31T11:22:59.472Z,10.20
2022-12-31T11:25:49.292Z,10.40
2022-12-31T11:28:40.472Z,10.40
2022-12-31T11:31:31.155Z,10.40
2022-12-31T11:34:36.610Z,10.40
2022-12-31T11:37:34.979Z,10.40
2022-12-31T11:40:34.115Z,10.40
2022-12-31T11:43:21.830Z,10.40
2022-12-31T11:46:32.932Z,10.40
2022-12-31T11:49:19.148Z,10.40
2022-12-31T11:51:50.335Z,10.30
2022-12-31T11:54:52.356Z,10.40
2022-12-31T11:57:31.939Z,10.30
2022-12-31T12:00:03.239Z,10.30
2022-12-31T12:02:45.694Z,10.40
2022-12-31T12:05:18.054Z,10.40
2022-12-31T12:10:22.295Z,10.40
2022-12-31T12:12:51.724Z,10.40
2022-12-31T12:15:25.247Z,10.40
2022-12-31T12:18:06.716Z,10.40
2022-12-31T12:20:40.316Z,10.50
2022-12-31T12:23:26.134Z,10.50
2022-12-31T12:25:54.127Z,10.50
2022-12-31T12:28:25.142Z,10.50
2022-12-31T12:30:57.886Z,10.50
2022-12-31T12:33:26.999Z,11.90
2022-12-31T12:38:24.010Z,10.50
2022-12-31T12:41:04.198Z,10.50
2022-12-31T12:43:35.201Z,10.50
2022-12-31T12:46:06.378Z,10.50
2022-12-31T12:48:37.270Z,10.60
2022-12-31T12:51:34.981Z,10.60
2022-12-31T12:54:39.441Z,10.60
2022-12-31T12:57:34.284Z,10.50
2022-12-31T13:00:02.298Z,10.50
2022-12-31T13:03:06.270Z,10.50
2022-12-31T13:05:49.018Z,10.50
2022-12-31T13:08:24.804Z,10.50
2022-12-31T13:11:26.562Z,10.50
2022-12-31T13:14:09.913Z,10.50
2022-12-31T13:16:43.151Z,10.50
2022-12-31T13:19:19.922Z,10.50
2022-12-31T13:22:03.033Z,10.50
2022-12-31T13:24:40.327Z,10.50
2022-12-31T13:27:35.470Z,10.50
2022-12-31T13:30:19.947Z,10.50
2022-12-31T13:32:58.081Z,10.50
2022-12-31T13:35:28.197Z,10.50
2022-12-31T13:38:06.076Z,10.40
2022-12-31T13:41:15.127Z,10.40
2022-12-31T13:44:13.411Z,10.40
2022-12-31T13:46:52.646Z,10.40
2022-12-31T13:49:31.623Z,10.40
2022-12-31T13:52:16.616Z,10.40
2022-12-31T13:55:17.131Z,10.40
2022-12-31T13:58:08.224Z,10.40
2022-12-31T14:00:43.579Z,10.40
2022-12-31T14:03:35.808Z,10.30
2022-12-31T14:06:10.093Z,10.40
2022-12-31T14:08:37.819Z,10.30
2022-12-31T14:11:06.217Z,10.30
2022-12-31T14:13:52.055Z,10.30
2022-12-31T14:16:41.981Z,10.30
2022-12-31T14:19:52.387Z,10.30
2022-12-31T14:22:42.273Z,10.30
2022-12-31T14:25:37.167Z,10.20
2022-12-31T14:28:08.001Z,10.20
2022-12-31T14:30:39.219Z,10.20
2022-12-31T14:33:18.760Z,10.20
2022-12-31T14:36:10.544Z,10.20
2022-12-31T14:38:55.219Z,10.20
2022-12-31T14:41:37.977Z,10.20
2022-12-31T14:44:40.959Z,10.10
2022-12-31T14:47:18.731Z,10.10
2022-12-31T14:50:23.965Z,10.10
2022-12-31T14:53:06.937Z,10.10
2022-12-31T14:55:40.789Z,10.00
2022-12-31T14:58:29.805Z,10.00
2022-12-31T15:01:18.976Z,10.10
2022-12-31T15:03:47.021Z,10.00
2022-12-31T15:06:23.380Z,10.10
2022-12-31T15:09:28.220Z,10.10
2022-12-31T15:12:28.041Z,10.00
2022-12-31T15:14:58.817Z,10.10
2022-12-31T15:17:46.686Z,10.00
2022-12-31T15:20:32.355Z,10.00
2022-12-31T15:25:31.691Z,9.90
2022-12-31T15:28:06.643Z,9.90
2022-12-31T15:33:06.610Z,9.90
2022-12-31T15:35:52.930Z,9.90
2022-12-31T15:38:36.288Z,9.80
2022-12-31T15:41:26.857Z,9.80
2022-12-31T15:44:23.473Z,9.80
2022-12-31T15:47:16.309Z,9.80
2022-12-31T15:49:47.543Z,9.80
2022-12-31T15:52:30.319Z,9.80
2022-12-31T15:54:58.601Z,9.70
2022-12-31T15:57:33.943Z,9.70
2022-12-31T16:00:07.047Z,9.60
2022-12-31T16:02:37.454Z,7.50
2022-12-31T16:05:05.969Z,9.70
2022-12-31T16:07:35.314Z,9.60
2022-12-31T16:10:04.596Z,9.60
2022-12-31T16:12:44.148Z,9.60
2022-12-31T16:15:31.075Z,9.70
2022-12-31T16:18:09.821Z,9.60
2022-12-31T16:20:43.233Z,9.60
2022-12-31T16:23:25.884Z,9.60
2022-12-31T16:25:58.570Z,9.60
2022-12-31T16:28:32.295Z,9.60
2022-12-31T16:31:06.257Z,9.70
2022-12-31T16:33:34.399Z,9.70
2022-12-31T16:36:02.522Z,9.60
2022-12-31T16:38:37.042Z,9.70
2022-12-31T16:41:15.494Z,9.70
2022-12-31T16:43:43.389Z,9.70
2022-12-31T16:46:30.655Z,9.70
2022-12-31T16:49:07.986Z,9.70
2022-12-31T16:51:43.731Z,9.70
2022-12-31T16:56:37.261Z,9.80
2022-12-31T16:59:17.592Z,9.80
2022-12-31T17:01:46.293Z,9.80
2022-12-31T17:04:20.869Z,9.80
2022-12-31T17:06:48.930Z,9.80
2022-12-31T17:09:22.851Z,9.90
2022-12-31T17:11:54.746Z,9.90
2022-12-31T17:14:27.992Z,9.90
2022-12-31T17:17:03.250Z,9.90
2022-12-31T17:19:42.111Z,9.90
2022-12-31T17:22:29.791Z,9.90
2022-12-31T17:25:09.508Z,9.90
2022-12-31T17:27:37.412Z,9.90
2022-12-31T17:30:37.811Z,9.90
2022-12-31T17:33:29.407Z,9.90
2022-12-31T17:36:15.132Z,9.90
2022-12-31T17:38:42.915Z,9.90
2022-12-31T17:41:31.238Z,9.90
2022-12-31T17:43:58.996Z,9.90
2022-12-31T17:46:27.201Z,11.60
2022-12-31T17:49:00.895Z,9.90
2022-12-31T17:51:28.444Z,9.90
2022-12-31T17:53:56.553Z,9.90
2022-12-31T17:58:54.477Z,9.90
2022-12-31T18:01:24.330Z,9.90
2022-12-31T18:03:52.316Z,9.90
2022-12-31T18:06:20.074Z,9.90
2022-12-31T18:08:48.326Z,9.90
2022-12-31T18:11:18.705Z,9.90
2022-12-31T18:13:47.024Z,9.90
2022-12-31T18:16:16.268Z,9.90
2022-12-31T18:18:45.379Z,9.90
2022-12-31T18:21:19.794Z,10.00
2022-12-31T18:23:48.811Z,10.00
2022-12-31T18:26:19.954Z,10.00
2022-12-31T18:28:48.759Z,10.00
2022-12-31T18:31:30.253Z,10.00
2022-12-31T18:33:59.526Z,10.00
2022-12-31T18:36:28.770Z,10.00
2022-12-31T18:38:56.335Z,10.10
2022-12-31T18:41:27.916Z,10.00
2022-12-31T18:43:56.075Z,10.00
2022-12-31T18:46:25.239Z,10.00
2022-12-31T18:48:53.065Z,9.90
2022-12-31T18:51:31.042Z,9.80
2022-12-31T18:54:03.981Z,9.80
2022-12-31T18:56:33.309Z,9.80
2022-12-31T18:59:02.696Z,9.80
2022-12-31T19:01:33.169Z,9.80
2022-12-31T19:04:12.568Z,9.80
2022-12-31T19:06:40.215Z,9.70
2022-12-31T19:11:55.766Z,9.70
2022-12-31T19:14:25.860Z,9.60
2022-12-31T19:16:54.717Z,9.60
2022-12-31T19:19:22.551Z,9.60
2022-12-31T19:21:50.358Z,9.60
2022-12-31T19:24:26.513Z,9.60
2022-12-31T19:26:55.072Z,9.50
2022-12-31T19:29:25.349Z,9.50
2022-12-31T19:31:53.709Z,9.50
2022-12-31T19:34:21.493Z,9.50
2022-12-31T19:36:49.508Z,9.50
2022-12-31T19:39:19.536Z,9.40
2022-12-31T19:41:53.021Z,9.40
2022-12-31T19:44:26.312Z,9.40
2022-12-31T19:46:54.149Z,9.50
2022-12-31T19:49:21.910Z,9.50
2022-12-31T19:51:50.625Z,9.50
2022-12-31T19:54:18.179Z,9.50
2022-12-31T19:56:45.787Z,9.50
2022-12-31T19:59:13.583Z,9.50
2022-12-31T20:01:44.590Z,9.50
2022-12-31T20:04:12.555Z,9.50
2022-12-31T20:06:40.316Z,9.50
2022-12-31T20:09:08.107Z,9.50
2022-12-31T20:11:35.786Z,9.50
2022-12-31T20:16:32.251Z,9.50
2022-12-31T20:19:00.749Z,9.50
2022-12-31T20:21:29.904Z,9.50
2022-12-31T20:23:57.750Z,9.40
2022-12-31T20:26:26.699Z,9.40
2022-12-31T20:31:25.684Z,9.30
2022-12-31T20:33:55.006Z,9.20
2022-12-31T20:36:23.907Z,9.20
2022-12-31T20:38:51.694Z,9.10
2022-12-31T20:41:21.507Z,8.90
2022-12-31T20:46:21.428Z,8.80
2022-12-31T20:48:51.570Z,8.80
2022-12-31T20:51:23.125Z,8.70
2022-12-31T20:53:55.384Z,8.80
2022-12-31T20:56:24.252Z,8.70
2022-12-31T20:58:51.970Z,8.60
2022-12-31T21:01:20.296Z,8.70
2022-12-31T21:04:06.345Z,8.60
2022-12-31T21:06:35.802Z,8.60
2022-12-31T21:09:05.690Z,8.60
2022-12-31T21:11:52.703Z,8.60
2022-12-31T21:14:20.653Z,8.60
2022-12-31T21:16:48.464Z,8.60
2022-12-31T21:19:16.379Z,8.50
2022-12-31T21:21:44.110Z,8.50
2022-12-31T21:24:12.103Z,8.60
2022-12-31T21:26:39.807Z,8.50
2022-12-31T21:29:07.519Z,8.50
2022-12-31T21:31:35.260Z,8.50
2022-12-31T21:34:02.947Z,8.50
2022-12-31T21:36:30.630Z,8.50
2022-12-31T21:41:45.187Z,8.50
2022-12-31T21:44:13.325Z,8.50
2022-12-31T21:47:00.743Z,8.50
2022-12-31T21:49:28.470Z,8.50
2022-12-31T21:52:31.283Z,8.50
2022-12-31T21:55:19.347Z,8.60
2022-12-31T21:58:23.955Z,8.50
2022-12-31T22:00:53.783Z,8.60
2022-12-31T22:03:31.956Z,8.50
2022-12-31T22:06:14.860Z,8.40
2022-12-31T22:08:45.108Z,8.40
2022-12-31T22:11:14.673Z,8.40
2022-12-31T22:13:42.557Z,8.30
2022-12-31T22:16:11.418Z,8.50
2022-12-31T22:18:40.711Z,8.40
2022-12-31T22:21:18.315Z,8.50
2022-12-31T22:23:47.265Z,7.10
2022-12-31T22:26:17.123Z,8.40
2022-12-31T22:28:46.113Z,8.40
2022-12-31T22:31:19.443Z,8.40
2022-12-31T22:33:47.720Z,8.40
2022-12-31T22:36:16.772Z,8.40
2022-12-31T22:38:45.100Z,8.40
2022-12-31T22:41:21.332Z,8.30
2022-12-31T22:43:51.557Z,8.40
2022-12-31T22:46:25.001Z,8.30
2022-12-31T22:48:56.472Z,8.30
2022-12-31T22:51:24.055Z,8.30
2022-12-31T22:56:19.787Z,8.30
2022-12-31T22:58:47.534Z,8.30
2022-12-31T23:01:23.351Z,8.30
2022-12-31T23:03:53.438Z,8.30
2022-12-31T23:06:23.154Z,8.30
2022-12-31T23:09:10.432Z,8.30
2022-12-31T23:11:39.759Z,8.30
2022-12-31T23:14:26.394Z,8.30
2022-12-31T23:17:30.867Z,8.30
2022-12-31T23:20:23.591Z,8.30
2022-12-31T23:23:09.811Z,8.30
2022-12-31T23:25:46.745Z,8.30
2022-12-31T23:28:17.435Z,8.30
2022-12-31T23:30:46.046Z,8.40
2022-12-31T23:33:20.163Z,8.40
2022-12-31T23:35:48.424Z,8.40
2022-12-31T23:38:17.632Z,8.30
2022-12-31T23:40:45.203Z,8.40
2022-12-31T23:43:19.013Z,8.40
2022-12-31T23:45:46.505Z,8.40
2022-12-31T23:48:13.826Z,8.40
2022-12-31T23:50:41.263Z,8.50
2022-12-31T23:53:08.646Z,8.50
2022-12-31T23:55:36.547Z,8.50
2022-12-31T23:58:03.901Z,8.50
